Hlavní strana
METAR-TAF:

METAR-TAF

Letiště :

Kemi, Finsko

zeměpisná šířka: 65-47N, zeměpisná délka: 024-35E, výška: 15 m

Aktuální stav počasí

Zpráva byla vytvořena před 25 minutami, v 10:50 UTC
vítr z různých směrů 2 kt
Teplota -22°C
Vlhkost vzduchu 84%
Tlak 1008 hPa
Viditelnost 10 km a více
Oblačno až skoro zataženo ve výšce 100 ft

METAR: EFKE 221050Z VRB02KT 9999 BKN001 M22/M24 Q1008

Čas: 13:15 (11:15 UTC)

Předpověď počasí

Zpráva byla vytvořena před 2 hodinami a 39 minutami, v 08:36 UTC
Předpověď platná od 22 v 09 UTC do 22 v 18 UTC
Východojihovýchodní vítr 4 kt
Viditelnost 10 km a více
Žádná oblačnost pod 1500 m, nevyskytují se cumulonimby.
Pravděpodobnost 30%
od 22 v 09 UTC do 22 v 18 UTC
Viditelnost: 1000 m
Oblačno až skoro zataženo ve výšce 100 ft
chuchvalce mlhy

TAF: EFKE 220836Z 2209/2218 12004KT CAVOK PROB30 2209/2218 1000 BCFG BKN001

Stav a předpovědi počasí z více než 4 000 letišť (zprávy METAR a TAF).

Červené a žluté tečky na mapě představují dostupné meteorologické stanice.

Když kurzor umístíte na tečku, zobrazí se název stanice.

Pak kliknutím zobrazíte stav a předpověď počasí.

Chcete-li změnit mapu, kliknutím na zelené tlačítko se znaménkem +mapu přiblížíte, kliknutím na zelené tlačítko se znaménkem – mapu oddálíte a kliknutím na zelené šipky přejdete na sousední mapy.


METAR-TAF: